sensor_id;sensor_type;location;lat;lon;timestamp;temperature;humidity
45849;DHT22;31567;54.600;9.842;2022-08-07T00:00:44;13.00;91.90
45849;DHT22;31567;54.600;9.842;2022-08-07T00:04:24;12.90;91.90
45849;DHT22;31567;54.600;9.842;2022-08-07T00:08:04;12.90;92.10
45849;DHT22;31567;54.600;9.842;2022-08-07T00:11:44;12.80;92.30
45849;DHT22;31567;54.600;9.842;2022-08-07T00:15:23;12.80;92.60
45849;DHT22;31567;54.600;9.842;2022-08-07T00:19:04;12.70;92.60
45849;DHT22;31567;54.600;9.842;2022-08-07T00:22:43;12.70;92.60
45849;DHT22;31567;54.600;9.842;2022-08-07T00:26:23;12.60;92.70
45849;DHT22;31567;54.600;9.842;2022-08-07T00:30:03;12.60;92.90
45849;DHT22;31567;54.600;9.842;2022-08-07T00:33:43;12.50;93.40
45849;DHT22;31567;54.600;9.842;2022-08-07T00:37:23;12.60;93.20
45849;DHT22;31567;54.600;9.842;2022-08-07T00:41:05;12.50;93.30
45849;DHT22;31567;54.600;9.842;2022-08-07T00:44:45;12.50;93.50
45849;DHT22;31567;54.600;9.842;2022-08-07T00:48:25;12.50;93.80
45849;DHT22;31567;54.600;9.842;2022-08-07T00:52:06;12.50;93.90
45849;DHT22;31567;54.600;9.842;2022-08-07T00:55:46;12.50;94.00
45849;DHT22;31567;54.600;9.842;2022-08-07T00:59:26;12.40;94.00
45849;DHT22;31567;54.600;9.842;2022-08-07T01:03:05;12.30;94.00
45849;DHT22;31567;54.600;9.842;2022-08-07T01:06:45;12.40;94.50
45849;DHT22;31567;54.600;9.842;2022-08-07T01:10:25;12.40;94.90
45849;DHT22;31567;54.600;9.842;2022-08-07T01:14:04;12.50;95.10
45849;DHT22;31567;54.600;9.842;2022-08-07T01:17:44;12.50;95.00
45849;DHT22;31567;54.600;9.842;2022-08-07T01:21:24;12.50;95.00
45849;DHT22;31567;54.600;9.842;2022-08-07T01:25:05;12.50;95.10
45849;DHT22;31567;54.600;9.842;2022-08-07T01:28:48;12.40;95.10
45849;DHT22;31567;54.600;9.842;2022-08-07T01:32:28;12.40;95.20
45849;DHT22;31567;54.600;9.842;2022-08-07T01:36:08;12.40;95.40
45849;DHT22;31567;54.600;9.842;2022-08-07T01:39:50;12.40;95.40
45849;DHT22;31567;54.600;9.842;2022-08-07T01:43:30;12.40;95.50
45849;DHT22;31567;54.600;9.842;2022-08-07T01:47:10;12.40;95.90
45849;DHT22;31567;54.600;9.842;2022-08-07T01:50:54;12.40;96.00
45849;DHT22;31567;54.600;9.842;2022-08-07T01:54:39;12.40;95.70
45849;DHT22;31567;54.600;9.842;2022-08-07T01:58:21;12.40;95.80
45849;DHT22;31567;54.600;9.842;2022-08-07T02:02:07;12.30;95.70
45849;DHT22;31567;54.600;9.842;2022-08-07T02:05:54;12.30;95.80
45849;DHT22;31567;54.600;9.842;2022-08-07T02:09:34;12.30;96.00
45849;DHT22;31567;54.600;9.842;2022-08-07T02:13:15;12.30;96.10
45849;DHT22;31567;54.600;9.842;2022-08-07T02:16:55;12.30;96.40
45849;DHT22;31567;54.600;9.842;2022-08-07T02:20:36;12.20;96.30
45849;DHT22;31567;54.600;9.842;2022-08-07T02:24:16;12.20;96.30
45849;DHT22;31567;54.600;9.842;2022-08-07T02:27:58;12.20;96.10
45849;DHT22;31567;54.600;9.842;2022-08-07T02:31:40;12.20;96.20
45849;DHT22;31567;54.600;9.842;2022-08-07T02:35:20;12.10;96.20
45849;DHT22;31567;54.600;9.842;2022-08-07T02:39:02;12.10;96.20
45849;DHT22;31567;54.600;9.842;2022-08-07T02:42:43;12.20;96.20
45849;DHT22;31567;54.600;9.842;2022-08-07T02:46:25;12.00;96.10
45849;DHT22;31567;54.600;9.842;2022-08-07T02:50:06;12.00;96.40
45849;DHT22;31567;54.600;9.842;2022-08-07T02:53:47;12.00;96.70
45849;DHT22;31567;54.600;9.842;2022-08-07T02:57:35;12.00;97.00
45849;DHT22;31567;54.600;9.842;2022-08-07T03:01:16;12.10;96.90
45849;DHT22;31567;54.600;9.842;2022-08-07T03:04:57;12.00;96.90
45849;DHT22;31567;54.600;9.842;2022-08-07T03:08:38;12.00;96.90
45849;DHT22;31567;54.600;9.842;2022-08-07T03:12:18;12.00;97.00
45849;DHT22;31567;54.600;9.842;2022-08-07T03:15:58;12.00;97.00
45849;DHT22;31567;54.600;9.842;2022-08-07T03:19:39;11.90;96.80
45849;DHT22;31567;54.600;9.842;2022-08-07T03:23:20;11.90;96.80
45849;DHT22;31567;54.600;9.842;2022-08-07T03:27:02;11.90;96.90
45849;DHT22;31567;54.600;9.842;2022-08-07T03:30:44;11.90;96.80
45849;DHT22;31567;54.600;9.842;2022-08-07T03:34:26;11.90;96.80
45849;DHT22;31567;54.600;9.842;2022-08-07T03:38:07;11.90;97.10
45849;DHT22;31567;54.600;9.842;2022-08-07T03:41:48;12.00;97.40
45849;DHT22;31567;54.600;9.842;2022-08-07T03:45:28;12.10;97.50
45849;DHT22;31567;54.600;9.842;2022-08-07T03:49:08;12.20;97.70
45849;DHT22;31567;54.600;9.842;2022-08-07T03:52:48;12.20;97.60
45849;DHT22;31567;54.600;9.842;2022-08-07T03:56:30;12.40;97.80
45849;DHT22;31567;54.600;9.842;2022-08-07T04:00:12;12.40;97.70
45849;DHT22;31567;54.600;9.842;2022-08-07T04:03:53;12.50;97.90
45849;DHT22;31567;54.600;9.842;2022-08-07T04:07:33;12.70;98.40
45849;DHT22;31567;54.600;9.842;2022-08-07T04:11:12;12.80;98.20
45849;DHT22;31567;54.600;9.842;2022-08-07T04:14:53;12.80;97.70
45849;DHT22;31567;54.600;9.842;2022-08-07T04:18:34;12.70;97.30
45849;DHT22;31567;54.600;9.842;2022-08-07T04:22:14;12.60;97.20
45849;DHT22;31567;54.600;9.842;2022-08-07T04:25:55;12.50;97.10
45849;DHT22;31567;54.600;9.842;2022-08-07T04:29:35;12.40;97.00
45849;DHT22;31567;54.600;9.842;2022-08-07T04:33:14;12.30;97.10
45849;DHT22;31567;54.600;9.842;2022-08-07T04:36:56;12.40;97.50
45849;DHT22;31567;54.600;9.842;2022-08-07T04:40:39;12.40;97.80
45849;DHT22;31567;54.600;9.842;2022-08-07T04:44:19;12.60;98.20
45849;DHT22;31567;54.600;9.842;2022-08-07T04:48:06;12.80;98.60
45849;DHT22;31567;54.600;9.842;2022-08-07T04:52:02;13.10;99.10
45849;DHT22;31567;54.600;9.842;2022-08-07T04:55:56;13.30;99.10
45849;DHT22;31567;54.600;9.842;2022-08-07T04:59:44;13.50;99.00
45849;DHT22;31567;54.600;9.842;2022-08-07T05:07:26;13.80;98.80
45849;DHT22;31567;54.600;9.842;2022-08-07T05:11:13;14.00;98.70
45849;DHT22;31567;54.600;9.842;2022-08-07T05:15:04;14.10;98.90
45849;DHT22;31567;54.600;9.842;2022-08-07T05:18:59;14.30;98.60
45849;DHT22;31567;54.600;9.842;2022-08-07T05:22:43;14.30;98.40
45849;DHT22;31567;54.600;9.842;2022-08-07T05:26:25;14.50;98.40
45849;DHT22;31567;54.600;9.842;2022-08-07T05:30:06;14.60;98.40
45849;DHT22;31567;54.600;9.842;2022-08-07T05:33:47;14.70;98.40
45849;DHT22;31567;54.600;9.842;2022-08-07T05:37:29;14.70;98.30
45849;DHT22;31567;54.600;9.842;2022-08-07T05:41:09;14.80;98.10
45849;DHT22;31567;54.600;9.842;2022-08-07T05:44:49;14.80;98.00
45849;DHT22;31567;54.600;9.842;2022-08-07T05:48:30;14.90;97.80
45849;DHT22;31567;54.600;9.842;2022-08-07T05:52:10;14.90;97.80
45849;DHT22;31567;54.600;9.842;2022-08-07T05:55:50;14.90;97.80
45849;DHT22;31567;54.600;9.842;2022-08-07T05:59:31;14.90;98.10
45849;DHT22;31567;54.600;9.842;2022-08-07T06:03:15;15.00;97.90
45849;DHT22;31567;54.600;9.842;2022-08-07T06:06:57;15.10;97.90
45849;DHT22;31567;54.600;9.842;2022-08-07T06:10:37;15.10;97.90
45849;DHT22;31567;54.600;9.842;2022-08-07T06:14:17;15.20;97.90
45849;DHT22;31567;54.600;9.842;2022-08-07T06:17:57;15.30;97.90
45849;DHT22;31567;54.600;9.842;2022-08-07T06:21:37;15.40;97.80
45849;DHT22;31567;54.600;9.842;2022-08-07T06:25:17;15.60;97.90
45849;DHT22;31567;54.600;9.842;2022-08-07T06:28:57;15.70;97.80
45849;DHT22;31567;54.600;9.842;2022-08-07T06:32:38;15.70;97.50
45849;DHT22;31567;54.600;9.842;2022-08-07T06:36:18;15.80;97.40
45849;DHT22;31567;54.600;9.842;2022-08-07T06:39:57;15.80;97.30
45849;DHT22;31567;54.600;9.842;2022-08-07T06:43:37;15.80;97.00
45849;DHT22;31567;54.600;9.842;2022-08-07T06:47:19;15.80;97.00
45849;DHT22;31567;54.600;9.842;2022-08-07T06:51:06;15.80;97.20
45849;DHT22;31567;54.600;9.842;2022-08-07T06:54:48;15.80;97.30
45849;DHT22;31567;54.600;9.842;2022-08-07T06:58:29;15.80;97.60
45849;DHT22;31567;54.600;9.842;2022-08-07T07:02:17;15.80;97.90
45849;DHT22;31567;54.600;9.842;2022-08-07T07:05:57;15.90;97.90
45849;DHT22;31567;54.600;9.842;2022-08-07T07:09:37;15.90;97.90
45849;DHT22;31567;54.600;9.842;2022-08-07T07:13:38;15.90;98.10
45849;DHT22;31567;54.600;9.842;2022-08-07T07:17:25;16.00;98.20
45849;DHT22;31567;54.600;9.842;2022-08-07T07:21:22;16.00;98.50
45849;DHT22;31567;54.600;9.842;2022-08-07T07:25:04;16.00;98.40
45849;DHT22;31567;54.600;9.842;2022-08-07T07:28:59;16.10;98.50
45849;DHT22;31567;54.600;9.842;2022-08-07T07:32:41;16.10;98.40
45849;DHT22;31567;54.600;9.842;2022-08-07T07:36:22;16.20;98.50
45849;DHT22;31567;54.600;9.842;2022-08-07T07:40:05;16.30;98.50
45849;DHT22;31567;54.600;9.842;2022-08-07T07:43:47;16.30;98.40
45849;DHT22;31567;54.600;9.842;2022-08-07T07:47:30;16.40;98.30
45849;DHT22;31567;54.600;9.842;2022-08-07T07:51:11;16.50;98.30
45849;DHT22;31567;54.600;9.842;2022-08-07T07:54:53;16.60;98.20
45849;DHT22;31567;54.600;9.842;2022-08-07T07:58:35;16.70;97.90
45849;DHT22;31567;54.600;9.842;2022-08-07T08:02:17;16.60;98.00
45849;DHT22;31567;54.600;9.842;2022-08-07T08:05:59;16.90;98.00
45849;DHT22;31567;54.600;9.842;2022-08-07T08:09:39;17.10;97.60
45849;DHT22;31567;54.600;9.842;2022-08-07T08:13:21;17.20;97.00
45849;DHT22;31567;54.600;9.842;2022-08-07T08:17:08;17.40;96.70
45849;DHT22;31567;54.600;9.842;2022-08-07T08:20:48;17.50;96.00
45849;DHT22;31567;54.600;9.842;2022-08-07T08:24:31;17.70;96.00
45849;DHT22;31567;54.600;9.842;2022-08-07T08:28:35;17.90;95.60
45849;DHT22;31567;54.600;9.842;2022-08-07T08:32:23;18.00;95.30
45849;DHT22;31567;54.600;9.842;2022-08-07T08:36:04;18.10;95.00
45849;DHT22;31567;54.600;9.842;2022-08-07T08:39:45;18.30;95.00
45849;DHT22;31567;54.600;9.842;2022-08-07T08:43:34;18.40;94.60
45849;DHT22;31567;54.600;9.842;2022-08-07T08:47:23;18.60;94.60
45849;DHT22;31567;54.600;9.842;2022-08-07T08:51:26;18.70;94.50
45849;DHT22;31567;54.600;9.842;2022-08-07T08:55:53;18.80;94.40
45849;DHT22;31567;54.600;9.842;2022-08-07T08:59:39;19.00;94.20
45849;DHT22;31567;54.600;9.842;2022-08-07T09:03:36;19.20;93.90
45849;DHT22;31567;54.600;9.842;2022-08-07T09:15:35;19.60;92.80
45849;DHT22;31567;54.600;9.842;2022-08-07T09:31:46;20.60;91.00
45849;DHT22;31567;54.600;9.842;2022-08-07T09:48:10;19.90;90.70
45849;DHT22;31567;54.600;9.842;2022-08-07T09:52:41;19.80;90.60
45849;DHT22;31567;54.600;9.842;2022-08-07T09:56:42;20.00;90.40
45849;DHT22;31567;54.600;9.842;2022-08-07T10:25:12;19.70;90.40
45849;DHT22;31567;54.600;9.842;2022-08-07T10:29:23;19.90;90.00
45849;DHT22;31567;54.600;9.842;2022-08-07T10:33:59;20.10;90.30
45849;DHT22;31567;54.600;9.842;2022-08-07T10:42:10;20.40;88.80
45849;DHT22;31567;54.600;9.842;2022-08-07T10:46:03;20.50;89.30
45849;DHT22;31567;54.600;9.842;2022-08-07T10:49:54;20.60;89.60
45849;DHT22;31567;54.600;9.842;2022-08-07T10:53:55;20.50;87.50
45849;DHT22;31567;54.600;9.842;2022-08-07T10:58:01;20.60;85.00
45849;DHT22;31567;54.600;9.842;2022-08-07T11:01:52;20.70;85.50
45849;DHT22;31567;54.600;9.842;2022-08-07T11:05:54;20.80;82.90
45849;DHT22;31567;54.600;9.842;2022-08-07T11:09:44;20.80;79.70
45849;DHT22;31567;54.600;9.842;2022-08-07T11:13:57;20.90;83.20
45849;DHT22;31567;54.600;9.842;2022-08-07T11:17:48;21.30;79.70
45849;DHT22;31567;54.600;9.842;2022-08-07T11:21:34;21.70;77.20
45849;DHT22;31567;54.600;9.842;2022-08-07T11:25:23;22.00;76.10
45849;DHT22;31567;54.600;9.842;2022-08-07T11:33:46;21.90;71.60
45849;DHT22;31567;54.600;9.842;2022-08-07T11:41:23;21.80;72.90
45849;DHT22;31567;54.600;9.842;2022-08-07T11:45:17;21.80;73.50
45849;DHT22;31567;54.600;9.842;2022-08-07T11:49:31;22.00;73.00
45849;DHT22;31567;54.600;9.842;2022-08-07T12:01:35;22.30;71.10
45849;DHT22;31567;54.600;9.842;2022-08-07T12:09:25;22.30;71.40
45849;DHT22;31567;54.600;9.842;2022-08-07T12:17:29;22.40;71.20
45849;DHT22;31567;54.600;9.842;2022-08-07T12:21:23;22.50;71.60
45849;DHT22;31567;54.600;9.842;2022-08-07T12:25:07;22.70;70.10
45849;DHT22;31567;54.600;9.842;2022-08-07T12:29:48;22.80;72.70
45849;DHT22;31567;54.600;9.842;2022-08-07T12:33:30;22.90;70.70
45849;DHT22;31567;54.600;9.842;2022-08-07T12:37:14;23.00;70.50
45849;DHT22;31567;54.600;9.842;2022-08-07T12:40:56;23.10;70.20
45849;DHT22;31567;54.600;9.842;2022-08-07T12:44:40;23.20;69.20
45849;DHT22;31567;54.600;9.842;2022-08-07T12:52:15;23.30;68.00
45849;DHT22;31567;54.600;9.842;2022-08-07T12:59:46;23.20;67.20
45849;DHT22;31567;54.600;9.842;2022-08-07T13:03:56;23.20;67.70
45849;DHT22;31567;54.600;9.842;2022-08-07T13:11:40;23.10;66.50
45849;DHT22;31567;54.600;9.842;2022-08-07T13:16:31;22.90;66.00
45849;DHT22;31567;54.600;9.842;2022-08-07T13:20:06;23.00;65.90
45849;DHT22;31567;54.600;9.842;2022-08-07T13:23:47;23.00;66.60
45849;DHT22;31567;54.600;9.842;2022-08-07T13:27:50;22.90;65.70
45849;DHT22;31567;54.600;9.842;2022-08-07T13:31:51;22.80;65.30
45849;DHT22;31567;54.600;9.842;2022-08-07T13:35:46;22.60;65.30
45849;DHT22;31567;54.600;9.842;2022-08-07T13:39:32;22.60;66.70
45849;DHT22;31567;54.600;9.842;2022-08-07T13:43:14;22.90;67.70
45849;DHT22;31567;54.600;9.842;2022-08-07T13:46:57;23.10;67.00
45849;DHT22;31567;54.600;9.842;2022-08-07T13:50:39;23.20;66.80
45849;DHT22;31567;54.600;9.842;2022-08-07T13:54:26;23.30;66.90
45849;DHT22;31567;54.600;9.842;2022-08-07T13:58:09;23.30;66.00
45849;DHT22;31567;54.600;9.842;2022-08-07T14:02:25;23.40;66.50
45849;DHT22;31567;54.600;9.842;2022-08-07T14:06:06;23.50;67.10
45849;DHT22;31567;54.600;9.842;2022-08-07T14:09:52;23.50;65.20
45849;DHT22;31567;54.600;9.842;2022-08-07T14:13:34;23.80;64.50
45849;DHT22;31567;54.600;9.842;2022-08-07T14:17:15;23.90;64.10
45849;DHT22;31567;54.600;9.842;2022-08-07T14:25:06;23.70;62.90
45849;DHT22;31567;54.600;9.842;2022-08-07T14:28:47;23.50;64.30
45849;DHT22;31567;54.600;9.842;2022-08-07T14:32:28;23.30;65.40
45849;DHT22;31567;54.600;9.842;2022-08-07T14:36:08;23.10;66.10
45849;DHT22;31567;54.600;9.842;2022-08-07T14:39:50;23.10;67.50
45849;DHT22;31567;54.600;9.842;2022-08-07T14:43:33;23.00;66.80
45849;DHT22;31567;54.600;9.842;2022-08-07T14:47:15;23.00;67.60
45849;DHT22;31567;54.600;9.842;2022-08-07T14:50:58;23.30;66.90
45849;DHT22;31567;54.600;9.842;2022-08-07T14:54:39;23.60;66.70
45849;DHT22;31567;54.600;9.842;2022-08-07T14:58:24;23.50;66.20
45849;DHT22;31567;54.600;9.842;2022-08-07T15:02:13;23.40;66.50
45849;DHT22;31567;54.600;9.842;2022-08-07T15:05:55;23.40;67.00
45849;DHT22;31567;54.600;9.842;2022-08-07T15:09:39;23.60;65.70
45849;DHT22;31567;54.600;9.842;2022-08-07T15:13:21;23.70;65.40
45849;DHT22;31567;54.600;9.842;2022-08-07T15:17:11;23.80;64.10
45849;DHT22;31567;54.600;9.842;2022-08-07T15:20:52;23.80;64.20
45849;DHT22;31567;54.600;9.842;2022-08-07T15:24:36;23.60;64.30
45849;DHT22;31567;54.600;9.842;2022-08-07T15:28:19;23.50;63.50
45849;DHT22;31567;54.600;9.842;2022-08-07T15:32:01;23.50;64.10
45849;DHT22;31567;54.600;9.842;2022-08-07T15:35:42;23.40;62.80
45849;DHT22;31567;54.600;9.842;2022-08-07T15:39:22;23.40;62.50
45849;DHT22;31567;54.600;9.842;2022-08-07T15:47:05;23.70;61.30
45849;DHT22;31567;54.600;9.842;2022-08-07T15:50:48;23.90;61.50
45849;DHT22;31567;54.600;9.842;2022-08-07T15:54:37;24.00;61.50
45849;DHT22;31567;54.600;9.842;2022-08-07T15:58:21;23.90;61.80
45849;DHT22;31567;54.600;9.842;2022-08-07T16:02:02;23.90;61.00
45849;DHT22;31567;54.600;9.842;2022-08-07T16:05:48;24.10;61.40
45849;DHT22;31567;54.600;9.842;2022-08-07T16:22:01;23.80;60.10
45849;DHT22;31567;54.600;9.842;2022-08-07T16:34:01;23.60;62.50
45849;DHT22;31567;54.600;9.842;2022-08-07T16:50:36;23.10;64.40
45849;DHT22;31567;54.600;9.842;2022-08-07T16:58:47;22.80;64.70
45849;DHT22;31567;54.600;9.842;2022-08-07T17:02:39;22.70;65.10
45849;DHT22;31567;54.600;9.842;2022-08-07T17:06:40;22.60;65.50
45849;DHT22;31567;54.600;9.842;2022-08-07T17:10:33;22.60;66.10
45849;DHT22;31567;54.600;9.842;2022-08-07T17:21:59;22.50;66.50
45849;DHT22;31567;54.600;9.842;2022-08-07T17:26:12;22.50;66.70
45849;DHT22;31567;54.600;9.842;2022-08-07T17:30:06;22.50;66.70
45849;DHT22;31567;54.600;9.842;2022-08-07T17:33:48;22.40;65.50
45849;DHT22;31567;54.600;9.842;2022-08-07T17:37:34;22.50;65.60
45849;DHT22;31567;54.600;9.842;2022-08-07T17:41:21;22.60;65.60
45849;DHT22;31567;54.600;9.842;2022-08-07T17:45:11;22.60;65.70
45849;DHT22;31567;54.600;9.842;2022-08-07T17:49:13;22.60;65.90
45849;DHT22;31567;54.600;9.842;2022-08-07T17:53:02;22.60;66.10
45849;DHT22;31567;54.600;9.842;2022-08-07T17:56:58;22.60;66.10
45849;DHT22;31567;54.600;9.842;2022-08-07T18:00:40;22.60;65.80
45849;DHT22;31567;54.600;9.842;2022-08-07T18:12:34;22.90;65.90
45849;DHT22;31567;54.600;9.842;2022-08-07T18:16:46;23.30;65.00
45849;DHT22;31567;54.600;9.842;2022-08-07T18:20:27;23.60;64.20
45849;DHT22;31567;54.600;9.842;2022-08-07T18:28:26;23.50;64.40
45849;DHT22;31567;54.600;9.842;2022-08-07T18:36:08;23.10;66.70
45849;DHT22;31567;54.600;9.842;2022-08-07T18:40:07;22.80;66.90
45849;DHT22;31567;54.600;9.842;2022-08-07T18:48:06;22.40;69.40
45849;DHT22;31567;54.600;9.842;2022-08-07T18:52:02;22.30;70.20
45849;DHT22;31567;54.600;9.842;2022-08-07T18:55:56;22.20;70.20
45849;DHT22;31567;54.600;9.842;2022-08-07T19:03:52;21.50;72.30
45849;DHT22;31567;54.600;9.842;2022-08-07T19:07:46;21.20;73.40
45849;DHT22;31567;54.600;9.842;2022-08-07T19:16:00;20.70;74.70
45849;DHT22;31567;54.600;9.842;2022-08-07T19:20:03;20.50;75.60
45849;DHT22;31567;54.600;9.842;2022-08-07T19:23:48;20.40;75.90
45849;DHT22;31567;54.600;9.842;2022-08-07T19:27:30;20.30;75.80
45849;DHT22;31567;54.600;9.842;2022-08-07T19:31:28;20.30;76.20
45849;DHT22;31567;54.600;9.842;2022-08-07T19:35:12;20.20;76.50
45849;DHT22;31567;54.600;9.842;2022-08-07T19:38:55;20.20;76.70
45849;DHT22;31567;54.600;9.842;2022-08-07T19:42:40;20.10;76.70
45849;DHT22;31567;54.600;9.842;2022-08-07T19:46:25;20.00;77.10
45849;DHT22;31567;54.600;9.842;2022-08-07T19:50:07;19.90;77.50
45849;DHT22;31567;54.600;9.842;2022-08-07T19:53:51;19.90;77.50
45849;DHT22;31567;54.600;9.842;2022-08-07T19:57:35;19.70;78.60
45849;DHT22;31567;54.600;9.842;2022-08-07T20:01:16;19.60;78.70
45849;DHT22;31567;54.600;9.842;2022-08-07T20:04:59;19.60;79.70
45849;DHT22;31567;54.600;9.842;2022-08-07T20:08:41;19.50;80.20
45849;DHT22;31567;54.600;9.842;2022-08-07T20:12:24;19.40;80.50
45849;DHT22;31567;54.600;9.842;2022-08-07T20:16:04;19.50;80.80
45849;DHT22;31567;54.600;9.842;2022-08-07T20:19:48;19.40;80.90
45849;DHT22;31567;54.600;9.842;2022-08-07T20:23:29;19.30;81.30
45849;DHT22;31567;54.600;9.842;2022-08-07T20:27:12;19.30;81.90
45849;DHT22;31567;54.600;9.842;2022-08-07T20:30:53;19.20;82.20
45849;DHT22;31567;54.600;9.842;2022-08-07T20:34:34;19.10;82.40
45849;DHT22;31567;54.600;9.842;2022-08-07T20:38:18;19.10;82.50
45849;DHT22;31567;54.600;9.842;2022-08-07T20:42:01;18.90;82.50
45849;DHT22;31567;54.600;9.842;2022-08-07T20:45:43;18.90;82.80
45849;DHT22;31567;54.600;9.842;2022-08-07T20:49:27;18.90;82.90
45849;DHT22;31567;54.600;9.842;2022-08-07T20:53:11;18.90;83.20
45849;DHT22;31567;54.600;9.842;2022-08-07T20:56:53;18.70;83.40
45849;DHT22;31567;54.600;9.842;2022-08-07T21:00:39;18.60;84.00
45849;DHT22;31567;54.600;9.842;2022-08-07T21:04:26;18.40;85.10
45849;DHT22;31567;54.600;9.842;2022-08-07T21:08:18;18.30;84.60
45849;DHT22;31567;54.600;9.842;2022-08-07T21:12:02;18.20;85.20
45849;DHT22;31567;54.600;9.842;2022-08-07T21:15:44;18.00;85.50
45849;DHT22;31567;54.600;9.842;2022-08-07T21:19:27;17.80;85.70
45849;DHT22;31567;54.600;9.842;2022-08-07T21:23:17;17.70;86.50
45849;DHT22;31567;54.600;9.842;2022-08-07T21:31:36;17.50;86.70
45849;DHT22;31567;54.600;9.842;2022-08-07T21:35:35;17.40;87.30
45849;DHT22;31567;54.600;9.842;2022-08-07T21:39:23;17.30;87.60
45849;DHT22;31567;54.600;9.842;2022-08-07T21:43:09;17.20;87.90
45849;DHT22;31567;54.600;9.842;2022-08-07T21:47:12;17.00;88.70
45849;DHT22;31567;54.600;9.842;2022-08-07T21:50:54;17.00;89.40
45849;DHT22;31567;54.600;9.842;2022-08-07T21:58:34;17.00;90.10
45849;DHT22;31567;54.600;9.842;2022-08-07T22:02:22;16.90;90.20
45849;DHT22;31567;54.600;9.842;2022-08-07T22:06:12;16.80;90.40
45849;DHT22;31567;54.600;9.842;2022-08-07T22:09:57;16.80;90.60
45849;DHT22;31567;54.600;9.842;2022-08-07T22:13:39;16.70;90.80
45849;DHT22;31567;54.600;9.842;2022-08-07T22:17:22;16.70;90.90
45849;DHT22;31567;54.600;9.842;2022-08-07T22:21:13;16.60;91.10
45849;DHT22;31567;54.600;9.842;2022-08-07T22:29:09;16.40;91.30
45849;DHT22;31567;54.600;9.842;2022-08-07T22:32:56;16.30;91.40
45849;DHT22;31567;54.600;9.842;2022-08-07T22:44:39;16.00;91.60
45849;DHT22;31567;54.600;9.842;2022-08-07T22:52:44;15.80;91.80
45849;DHT22;31567;54.600;9.842;2022-08-07T22:56:32;15.70;92.00
45849;DHT22;31567;54.600;9.842;2022-08-07T23:00:27;15.70;92.30
45849;DHT22;31567;54.600;9.842;2022-08-07T23:08:50;15.60;92.60
45849;DHT22;31567;54.600;9.842;2022-08-07T23:12:53;15.60;92.70
45849;DHT22;31567;54.600;9.842;2022-08-07T23:25:09;15.50;92.70
45849;DHT22;31567;54.600;9.842;2022-08-07T23:33:01;15.50;93.30
45849;DHT22;31567;54.600;9.842;2022-08-07T23:41:01;15.70;93.50
45849;DHT22;31567;54.600;9.842;2022-08-07T23:49:18;15.60;93.70
45849;DHT22;31567;54.600;9.842;2022-08-07T23:53:11;15.60;93.80
45849;DHT22;31567;54.600;9.842;2022-08-07T23:57:10;15.60;94.00
